Time,TemperatureF,DewpointF,PressureIn,WindDirection,WindDirectionDegrees,WindSpeedMPH,WindSpeedGustMPH,Humidity,HourlyPrecipIn,Conditions,Clouds,dailyrainin,SoftwareType,DateUTC
2013-05-09 00:00:00,54.6,44.7,29.87,ESE,117,0.0,0.0,69,0.00,,---,0.00,VWS V14.01,2013-05-09 05:00:00,
2013-05-09 00:30:00,54.9,44.2,29.86,SE,126,0.0,2.0,67,0.00,,---,0.00,VWS V14.01,2013-05-09 05:30:00,
2013-05-09 01:00:00,54.3,43.6,29.86,SE,126,0.0,0.0,67,0.00,,---,0.00,VWS V14.01,2013-05-09 06:00:00,
2013-05-09 01:30:00,53.6,44.1,29.85,SE,126,0.0,0.0,70,0.00,,---,0.00,VWS V14.01,2013-05-09 06:30:00,
2013-05-09 02:00:00,52.2,45.9,29.85,SE,126,0.0,0.0,79,0.00,,---,0.00,VWS V14.01,2013-05-09 07:00:00,
2013-05-09 02:30:00,51.0,46.0,29.85,SE,126,0.0,0.0,83,0.00,,---,0.00,VWS V14.01,2013-05-09 07:30:00,
2013-05-09 03:00:00,50.7,45.4,29.85,SE,126,0.0,0.0,82,0.00,,---,0.00,VWS V14.01,2013-05-09 08:00:00,
2013-05-09 03:30:00,53.0,45.3,29.85,SE,126,0.0,0.0,75,0.00,,---,0.00,VWS V14.01,2013-05-09 08:30:00,
2013-05-09 04:00:00,52.8,45.1,29.84,SE,126,0.0,0.0,75,0.00,,---,0.00,VWS V14.01,2013-05-09 09:00:00,
2013-05-09 04:30:00,53.8,45.0,29.84,SE,126,0.0,0.0,72,0.00,,---,0.00,VWS V14.01,2013-05-09 09:30:00,
2013-05-09 05:00:00,53.3,45.9,29.84,SE,126,0.0,0.0,76,0.00,,---,0.00,VWS V14.01,2013-05-09 10:00:00,
2013-05-09 05:30:00,53.6,46.9,29.85,SE,126,0.0,0.0,78,0.00,,---,0.00,VWS V14.01,2013-05-09 10:30:00,
2013-05-09 06:00:00,53.7,47.0,29.85,SE,126,0.0,0.0,78,0.00,,---,0.00,VWS V14.01,2013-05-09 11:00:00,
2013-05-09 06:30:00,54.4,47.7,29.85,SE,126,0.0,0.0,78,0.00,,---,0.00,VWS V14.01,2013-05-09 11:30:00,
2013-05-09 07:00:00,56.5,48.0,29.86,SE,126,0.0,1.0,73,0.00,,---,0.00,VWS V14.01,2013-05-09 12:00:00,
2013-05-09 07:30:00,58.7,48.6,29.85,ESE,122,0.0,4.0,69,0.00,,---,0.00,VWS V14.01,2013-05-09 12:30:00,
2013-05-09 08:00:00,61.8,49.9,29.85,SE,125,0.0,2.0,65,0.00,,---,0.00,VWS V14.01,2013-05-09 13:00:00,
2013-05-09 08:30:00,62.9,50.1,29.85,SE,131,0.0,7.0,63,0.00,,---,0.00,VWS V14.01,2013-05-09 13:30:00,
2013-05-09 09:00:00,64.5,49.9,29.85,SE,135,0.0,9.0,59,0.00,,---,0.00,VWS V14.01,2013-05-09 14:00:00,
2013-05-09 09:30:00,64.6,48.6,29.85,South,169,0.0,8.0,56,0.00,,---,0.00,VWS V14.01,2013-05-09 14:30:00,
2013-05-09 10:00:00,65.2,51.0,29.85,SSE,148,0.0,4.0,60,0.00,,---,0.00,VWS V14.01,2013-05-09 15:00:00,
2013-05-09 10:30:00,66.0,50.3,29.85,SE,146,0.0,1.0,57,0.00,,---,0.00,VWS V14.01,2013-05-09 15:30:00,
2013-05-09 11:00:00,66.5,49.4,29.85,ESE,121,0.0,5.0,54,0.00,,---,0.00,VWS V14.01,2013-05-09 16:00:00,
2013-05-09 11:30:00,66.7,49.0,29.85,SE,134,0.0,7.0,53,0.00,,---,0.00,VWS V14.01,2013-05-09 16:30:00,
2013-05-09 12:00:00,67.1,48.9,29.85,South,176,0.0,9.0,52,0.00,,---,0.00,VWS V14.01,2013-05-09 17:00:00,
2013-05-09 12:30:00,65.9,47.8,29.85,South,178,5.0,7.0,52,0.00,,---,0.00,VWS V14.01,2013-05-09 17:30:00,
2013-05-09 13:00:00,65.1,49.0,29.85,South,185,0.0,10.0,56,0.00,,---,0.00,VWS V14.01,2013-05-09 18:00:00,
2013-05-09 13:30:00,64.6,52.2,29.84,SE,126,0.0,3.0,64,0.00,,---,0.00,VWS V14.01,2013-05-09 18:30:00,
2013-05-09 14:00:00,64.4,53.2,29.83,SE,125,0.0,0.0,67,0.00,,---,0.00,VWS V14.01,2013-05-09 19:00:00,
2013-05-09 14:30:00,64.3,53.5,29.82,SSW,202,0.0,1.0,68,0.00,,---,0.00,VWS V14.01,2013-05-09 19:30:00,
2013-05-09 15:00:00,64.7,53.1,29.81,SE,133,5.0,6.0,66,0.00,,---,0.00,VWS V14.01,2013-05-09 20:00:00,
2013-05-09 15:30:00,63.3,53.0,29.82,South,180,3.0,9.0,69,0.00,,---,0.00,VWS V14.01,2013-05-09 20:30:00,
2013-05-09 16:00:00,62.6,53.8,29.81,SSE,160,0.0,3.0,73,0.00,,---,0.00,VWS V14.01,2013-05-09 21:00:00,
2013-05-09 16:30:00,61.7,53.7,29.81,West,278,4.0,4.0,75,0.00,,---,0.00,VWS V14.01,2013-05-09 21:30:00,
2013-05-09 17:00:00,52.3,46.7,29.83,WSW,238,0.0,7.0,81,0.01,,---,0.01,VWS V14.01,2013-05-09 22:00:00,
2013-05-09 17:30:00,50.0,45.4,29.84,West,281,0.0,4.0,84,0.02,,---,0.02,VWS V14.01,2013-05-09 22:30:00,
2013-05-09 18:00:00,48.8,44.2,29.85,West,281,3.0,5.0,84,0.02,,---,0.02,VWS V14.01,2013-05-09 23:00:00,
2013-05-09 18:30:00,48.1,43.8,29.83,WNW,294,5.0,9.0,85,0.02,,---,0.03,VWS V14.01,2013-05-09 23:30:00,
2013-05-09 19:00:00,47.4,44.0,29.82,NW,318,3.0,7.0,88,0.01,,---,0.03,VWS V14.01,2013-05-10 00:00:00,
2013-05-09 19:30:00,46.7,43.6,29.82,West,278,4.0,11.0,89,0.02,,---,0.04,VWS V14.01,2013-05-10 00:30:00,
2013-05-09 20:00:00,45.8,43.0,29.83,SSW,192,0.0,6.0,90,0.01,,---,0.04,VWS V14.01,2013-05-10 01:00:00,
2013-05-09 20:30:00,44.3,41.6,29.84,WSW,250,2.0,10.0,90,0.01,,---,0.04,VWS V14.01,2013-05-10 01:30:00,
2013-05-09 21:00:00,43.0,40.6,29.84,NW,313,0.0,11.0,91,0.00,,---,0.04,VWS V14.01,2013-05-10 02:00:00,
2013-05-09 21:30:00,42.9,40.7,29.83,SW,227,0.0,6.0,92,0.01,,---,0.05,VWS V14.01,2013-05-10 02:30:00,
2013-05-09 22:00:00,42.4,40.2,29.83,NW,309,2.0,9.0,92,0.01,,---,0.05,VWS V14.01,2013-05-10 03:00:00,
2013-05-09 22:30:00,41.9,40.0,29.82,South,169,1.0,11.0,93,0.01,,---,0.05,VWS V14.01,2013-05-10 03:30:00,
2013-05-09 23:00:00,41.4,39.5,29.82,WNW,299,2.0,5.0,93,0.00,,---,0.05,VWS V14.01,2013-05-10 04:00:00,
2013-05-09 23:30:00,40.7,39.1,29.81,West,268,4.0,9.0,94,0.02,,---,0.07,VWS V14.01,2013-05-10 04:30:00,